sensor_id;sensor_type;location;lat;lon;timestamp;pressure;altitude;pressure_sealevel;temperature;humidity
9899;BME280;4988;49.238;6.698;2022-10-16T00:01:09;98856.56;;;14.82;100.00
9899;BME280;4988;49.238;6.698;2022-10-16T00:03:36;98858.94;;;14.86;100.00
9899;BME280;4988;49.238;6.698;2022-10-16T00:06:03;98865.81;;;14.90;100.00
9899;BME280;4988;49.238;6.698;2022-10-16T00:08:29;98869.34;;;14.91;100.00
9899;BME280;4988;49.238;6.698;2022-10-16T00:11:06;98870.84;;;14.95;100.00
9899;BME280;4988;49.238;6.698;2022-10-16T00:13:33;98874.72;;;14.91;100.00
9899;BME280;4988;49.238;6.698;2022-10-16T00:15:59;98869.91;;;14.96;100.00
9899;BME280;4988;49.238;6.698;2022-10-16T00:18:26;98844.16;;;15.06;100.00
9899;BME280;4988;49.238;6.698;2022-10-16T00:20:51;98848.88;;;15.03;100.00
9899;BME280;4988;49.238;6.698;2022-10-16T00:23:17;98855.09;;;15.03;100.00
9899;BME280;4988;49.238;6.698;2022-10-16T00:25:42;98848.44;;;15.09;100.00
9899;BME280;4988;49.238;6.698;2022-10-16T00:28:07;98854.16;;;15.04;100.00
9899;BME280;4988;49.238;6.698;2022-10-16T00:30:33;98865.19;;;15.00;100.00
9899;BME280;4988;49.238;6.698;2022-10-16T00:32:58;98868.41;;;14.92;100.00
9899;BME280;4988;49.238;6.698;2022-10-16T00:35:24;98869.13;;;14.94;100.00
9899;BME280;4988;49.238;6.698;2022-10-16T00:37:49;98869.47;;;14.89;100.00
9899;BME280;4988;49.238;6.698;2022-10-16T00:40:14;98861.84;;;14.96;100.00
9899;BME280;4988;49.238;6.698;2022-10-16T00:42:40;98856.19;;;15.01;100.00
9899;BME280;4988;49.238;6.698;2022-10-16T00:45:06;98864.34;;;14.99;100.00
9899;BME280;4988;49.238;6.698;2022-10-16T00:47:40;98867.88;;;15.00;100.00
9899;BME280;4988;49.238;6.698;2022-10-16T00:50:11;98871.63;;;14.97;100.00
9899;BME280;4988;49.238;6.698;2022-10-16T00:52:42;98871.63;;;14.97;100.00
9899;BME280;4988;49.238;6.698;2022-10-16T00:55:09;98868.72;;;15.00;100.00
9899;BME280;4988;49.238;6.698;2022-10-16T00:57:36;98871.97;;;15.05;100.00
9899;BME280;4988;49.238;6.698;2022-10-16T01:00:05;98879.66;;;14.97;100.00
9899;BME280;4988;49.238;6.698;2022-10-16T01:02:30;98869.91;;;14.96;100.00
9899;BME280;4988;49.238;6.698;2022-10-16T01:04:56;98867.56;;;15.04;100.00
9899;BME280;4988;49.238;6.698;2022-10-16T01:10:39;98881.81;;;14.92;100.00
9899;BME280;4988;49.238;6.698;2022-10-16T01:13:12;98884.78;;;14.87;100.00
9899;BME280;4988;49.238;6.698;2022-10-16T01:15:50;98894.00;;;14.83;100.00
9899;BME280;4988;49.238;6.698;2022-10-16T01:18:32;98890.03;;;14.76;100.00
9899;BME280;4988;49.238;6.698;2022-10-16T01:21:03;98870.50;;;14.87;100.00
9899;BME280;4988;49.238;6.698;2022-10-16T01:23:53;98870.31;;;14.90;100.00
9899;BME280;4988;49.238;6.698;2022-10-16T01:26:35;98881.16;;;14.88;100.00
9899;BME280;4988;49.238;6.698;2022-10-16T01:32:07;98877.81;;;14.85;100.00
9899;BME280;4988;49.238;6.698;2022-10-16T01:34:38;98881.66;;;14.80;100.00
9899;BME280;4988;49.238;6.698;2022-10-16T01:37:11;98896.34;;;14.75;100.00
9899;BME280;4988;49.238;6.698;2022-10-16T01:39:39;98905.84;;;14.66;100.00
9899;BME280;4988;49.238;6.698;2022-10-16T01:42:20;98895.41;;;14.61;100.00
9899;BME280;4988;49.238;6.698;2022-10-16T01:44:47;98884.44;;;14.66;100.00
9899;BME280;4988;49.238;6.698;2022-10-16T01:47:14;98894.72;;;14.72;100.00
9899;BME280;4988;49.238;6.698;2022-10-16T01:49:40;98897.28;;;14.74;100.00
9899;BME280;4988;49.238;6.698;2022-10-16T01:52:12;98902.13;;;14.69;100.00
9899;BME280;4988;49.238;6.698;2022-10-16T01:54:42;98891.28;;;14.70;100.00
9899;BME280;4988;49.238;6.698;2022-10-16T01:57:10;98888.19;;;14.76;100.00
9899;BME280;4988;49.238;6.698;2022-10-16T01:59:41;98888.06;;;14.78;100.00
9899;BME280;4988;49.238;6.698;2022-10-16T02:02:09;98885.31;;;14.79;100.00
9899;BME280;4988;49.238;6.698;2022-10-16T02:04:40;98882.31;;;14.84;100.00
9899;BME280;4988;49.238;6.698;2022-10-16T02:07:07;98882.63;;;14.79;100.00
9899;BME280;4988;49.238;6.698;2022-10-16T02:09:34;98895.47;;;14.74;100.00
9899;BME280;4988;49.238;6.698;2022-10-16T02:12:04;98901.88;;;14.72;100.00
9899;BME280;4988;49.238;6.698;2022-10-16T02:14:32;98899.53;;;14.67;100.00
9899;BME280;4988;49.238;6.698;2022-10-16T02:16:57;98900.81;;;14.74;100.00
9899;BME280;4988;49.238;6.698;2022-10-16T02:19:23;98900.41;;;14.80;100.00
9899;BME280;4988;49.238;6.698;2022-10-16T02:21:56;98899.69;;;14.78;100.00
9899;BME280;4988;49.238;6.698;2022-10-16T02:27:00;98890.25;;;14.86;100.00
9899;BME280;4988;49.238;6.698;2022-10-16T02:29:28;98898.16;;;14.74;100.00
9899;BME280;4988;49.238;6.698;2022-10-16T02:31:58;98910.41;;;14.64;100.00
9899;BME280;4988;49.238;6.698;2022-10-16T02:34:26;98904.28;;;14.62;100.00
9899;BME280;4988;49.238;6.698;2022-10-16T02:36:52;98910.88;;;14.71;100.00
9899;BME280;4988;49.238;6.698;2022-10-16T02:39:19;98914.63;;;14.68;100.00
9899;BME280;4988;49.238;6.698;2022-10-16T02:41:45;98914.44;;;14.71;100.00
9899;BME280;4988;49.238;6.698;2022-10-16T02:44:10;98915.94;;;14.75;100.00
9899;BME280;4988;49.238;6.698;2022-10-16T02:46:35;98909.50;;;14.78;100.00
9899;BME280;4988;49.238;6.698;2022-10-16T02:49:01;98911.88;;;14.83;100.00
9899;BME280;4988;49.238;6.698;2022-10-16T02:51:26;98920.28;;;14.91;100.00
9899;BME280;4988;49.238;6.698;2022-10-16T02:53:51;98903.56;;;14.87;100.00
9899;BME280;4988;49.238;6.698;2022-10-16T02:56:17;98915.13;;;14.88;100.00
9899;BME280;4988;49.238;6.698;2022-10-16T02:58:42;98915.13;;;14.88;100.00
9899;BME280;4988;49.238;6.698;2022-10-16T03:01:07;98916.84;;;14.89;100.00
9899;BME280;4988;49.238;6.698;2022-10-16T03:03:33;98916.84;;;14.89;100.00
9899;BME280;4988;49.238;6.698;2022-10-16T03:05:58;98918.56;;;14.90;100.00
9899;BME280;4988;49.238;6.698;2022-10-16T03:08:23;98924.88;;;14.89;100.00
9899;BME280;4988;49.238;6.698;2022-10-16T03:10:50;98923.91;;;14.90;100.00
9899;BME280;4988;49.238;6.698;2022-10-16T03:13:16;98926.47;;;14.78;100.00
9899;BME280;4988;49.238;6.698;2022-10-16T03:15:41;98916.28;;;14.84;100.00
9899;BME280;4988;49.238;6.698;2022-10-16T03:18:06;98910.81;;;14.85;100.00
9899;BME280;4988;49.238;6.698;2022-10-16T03:20:32;98912.53;;;14.86;100.00
9899;BME280;4988;49.238;6.698;2022-10-16T03:22:58;98910.72;;;14.87;100.00
9899;BME280;4988;49.238;6.698;2022-10-16T03:25:23;98917.06;;;14.86;100.00
9899;BME280;4988;49.238;6.698;2022-10-16T03:27:48;98922.41;;;14.86;100.00
9899;BME280;4988;49.238;6.698;2022-10-16T03:30:14;98911.69;;;14.86;100.00
9899;BME280;4988;49.238;6.698;2022-10-16T03:32:39;98907.00;;;14.89;100.00
9899;BME280;4988;49.238;6.698;2022-10-16T03:35:05;98920.47;;;14.88;100.00
9899;BME280;4988;49.238;6.698;2022-10-16T03:37:30;98915.88;;;14.90;100.00
9899;BME280;4988;49.238;6.698;2022-10-16T03:39:56;98917.72;;;14.89;100.00
9899;BME280;4988;49.238;6.698;2022-10-16T03:42:21;98907.84;;;14.90;100.00
9899;BME280;4988;49.238;6.698;2022-10-16T03:44:46;98901.53;;;14.91;100.00
9899;BME280;4988;49.238;6.698;2022-10-16T03:47:12;98903.56;;;14.87;100.00
9899;BME280;4988;49.238;6.698;2022-10-16T03:49:37;98892.59;;;14.90;100.00
9899;BME280;4988;49.238;6.698;2022-10-16T03:52:02;98911.69;;;14.86;100.00
9899;BME280;4988;49.238;6.698;2022-10-16T03:54:28;98909.75;;;14.75;100.00
9899;BME280;4988;49.238;6.698;2022-10-16T03:56:53;98906.19;;;14.74;100.00
9899;BME280;4988;49.238;6.698;2022-10-16T03:59:18;98913.47;;;14.72;100.00
9899;BME280;4988;49.238;6.698;2022-10-16T04:01:43;98923.25;;;14.73;100.00
9899;BME280;4988;49.238;6.698;2022-10-16T04:04:09;98917.78;;;14.75;100.00
9899;BME280;4988;49.238;6.698;2022-10-16T04:06:34;98919.38;;;14.77;100.00
9899;BME280;4988;49.238;6.698;2022-10-16T04:08:59;98927.53;;;14.76;100.00
9899;BME280;4988;49.238;6.698;2022-10-16T04:11:25;98915.22;;;14.73;100.00
9899;BME280;4988;49.238;6.698;2022-10-16T04:13:50;98917.66;;;14.76;100.00
9899;BME280;4988;49.238;6.698;2022-10-16T04:16:15;98924.94;;;14.74;100.00
9899;BME280;4988;49.238;6.698;2022-10-16T04:18:41;98927.72;;;14.73;100.00
9899;BME280;4988;49.238;6.698;2022-10-16T04:21:06;98919.38;;;14.77;100.00
9899;BME280;4988;49.238;6.698;2022-10-16T04:23:33;98914.88;;;14.78;100.00
9899;BME280;4988;49.238;6.698;2022-10-16T04:25:59;98925.50;;;14.79;100.00
9899;BME280;4988;49.238;6.698;2022-10-16T04:28:24;98923.69;;;14.80;100.00
9899;BME280;4988;49.238;6.698;2022-10-16T04:30:50;98926.25;;;14.82;100.00
9899;BME280;4988;49.238;6.698;2022-10-16T04:33:15;98935.91;;;14.84;100.00
9899;BME280;4988;49.238;6.698;2022-10-16T04:35:41;98939.75;;;14.80;100.00
9899;BME280;4988;49.238;6.698;2022-10-16T04:38:06;98935.25;;;14.80;100.00
9899;BME280;4988;49.238;6.698;2022-10-16T04:40:31;98931.53;;;14.83;100.00
9899;BME280;4988;49.238;6.698;2022-10-16T04:42:58;98929.47;;;14.87;100.00
9899;BME280;4988;49.238;6.698;2022-10-16T04:45:23;98925.00;;;14.87;100.00
9899;BME280;4988;49.238;6.698;2022-10-16T04:47:49;98916.66;;;14.92;100.00
9899;BME280;4988;49.238;6.698;2022-10-16T04:50:14;98926.59;;;14.90;100.00
9899;BME280;4988;49.238;6.698;2022-10-16T04:52:39;98931.13;;;14.89;100.00
9899;BME280;4988;49.238;6.698;2022-10-16T04:55:05;98932.91;;;14.89;100.00
9899;BME280;4988;49.238;6.698;2022-10-16T04:57:31;98936.56;;;14.88;100.00
9899;BME280;4988;49.238;6.698;2022-10-16T04:59:58;98932.06;;;14.88;100.00
9899;BME280;4988;49.238;6.698;2022-10-16T05:02:24;98937.50;;;14.87;100.00
9899;BME280;4988;49.238;6.698;2022-10-16T05:04:49;98926.78;;;14.87;100.00
9899;BME280;4988;49.238;6.698;2022-10-16T05:07:14;98929.47;;;14.87;100.00
9899;BME280;4988;49.238;6.698;2022-10-16T05:09:40;98927.56;;;14.89;100.00
9899;BME280;4988;49.238;6.698;2022-10-16T05:12:05;98936.56;;;14.88;100.00
9899;BME280;4988;49.238;6.698;2022-10-16T05:14:31;98927.66;;;14.87;100.00
9899;BME280;4988;49.238;6.698;2022-10-16T05:16:56;98934.84;;;14.87;100.00
9899;BME280;4988;49.238;6.698;2022-10-16T05:19:22;98935.72;;;14.87;100.00
9899;BME280;4988;49.238;6.698;2022-10-16T05:21:47;98927.66;;;14.87;100.00
9899;BME280;4988;49.238;6.698;2022-10-16T05:24:12;98936.66;;;14.86;100.00
9899;BME280;4988;49.238;6.698;2022-10-16T05:26:37;98931.19;;;14.88;100.00
9899;BME280;4988;49.238;6.698;2022-10-16T05:29:03;98936.47;;;14.89;100.00
9899;BME280;4988;49.238;6.698;2022-10-16T05:31:29;98945.16;;;14.93;100.00
9899;BME280;4988;49.238;6.698;2022-10-16T05:34:00;98957.25;;;14.86;100.00
9899;BME280;4988;49.238;6.698;2022-10-16T05:36:26;98947.28;;;14.88;100.00
9899;BME280;4988;49.238;6.698;2022-10-16T05:38:52;98950.91;;;14.87;100.00
9899;BME280;4988;49.238;6.698;2022-10-16T05:41:18;98959.06;;;14.85;100.00
9899;BME280;4988;49.238;6.698;2022-10-16T05:43:49;98958.22;;;14.85;100.00
9899;BME280;4988;49.238;6.698;2022-10-16T05:46:15;98955.66;;;14.83;100.00
9899;BME280;4988;49.238;6.698;2022-10-16T05:48:41;98939.22;;;14.88;100.00
9899;BME280;4988;49.238;6.698;2022-10-16T05:51:08;98937.44;;;14.88;100.00
9899;BME280;4988;49.238;6.698;2022-10-16T05:53:37;98946.53;;;14.86;100.00
9899;BME280;4988;49.238;6.698;2022-10-16T05:56:04;98951.78;;;14.87;100.00
9899;BME280;4988;49.238;6.698;2022-10-16T05:58:32;98945.56;;;14.87;100.00
9899;BME280;4988;49.238;6.698;2022-10-16T06:01:03;98939.22;;;14.88;100.00
9899;BME280;4988;49.238;6.698;2022-10-16T06:03:29;98948.16;;;14.88;100.00
9899;BME280;4988;49.238;6.698;2022-10-16T06:05:54;98940.19;;;14.87;100.00
9899;BME280;4988;49.238;6.698;2022-10-16T06:08:21;98951.78;;;14.87;100.00
9899;BME280;4988;49.238;6.698;2022-10-16T06:10:47;98947.84;;;14.93;100.00
9899;BME280;4988;49.238;6.698;2022-10-16T06:13:13;98937.13;;;14.93;100.00
9899;BME280;4988;49.238;6.698;2022-10-16T06:15:41;98954.25;;;14.90;100.00
9899;BME280;4988;49.238;6.698;2022-10-16T06:18:10;98965.72;;;14.79;100.00
9899;BME280;4988;49.238;6.698;2022-10-16T06:20:37;98959.38;;;14.80;100.00
9899;BME280;4988;49.238;6.698;2022-10-16T06:23:03;98967.63;;;14.77;100.00
9899;BME280;4988;49.238;6.698;2022-10-16T06:25:30;98981.84;;;14.65;100.00
9899;BME280;4988;49.238;6.698;2022-10-16T06:27:55;98991.59;;;14.66;100.00
9899;BME280;4988;49.238;6.698;2022-10-16T06:30:20;98987.19;;;14.65;100.00
9899;BME280;4988;49.238;6.698;2022-10-16T06:32:46;98994.16;;;14.68;100.00
9899;BME280;4988;49.238;6.698;2022-10-16T06:35:11;98994.59;;;14.74;100.00
9899;BME280;4988;49.238;6.698;2022-10-16T06:37:36;98998.47;;;14.70;100.00
9899;BME280;4988;49.238;6.698;2022-10-16T06:40:02;99009.75;;;14.61;100.00
9899;BME280;4988;49.238;6.698;2022-10-16T06:42:29;99006.09;;;14.62;100.00
9899;BME280;4988;49.238;6.698;2022-10-16T06:44:54;98999.13;;;14.74;100.00
9899;BME280;4988;49.238;6.698;2022-10-16T06:47:20;99007.25;;;14.72;100.00
9899;BME280;4988;49.238;6.698;2022-10-16T06:49:45;99001.69;;;14.75;100.00
9899;BME280;4988;49.238;6.698;2022-10-16T06:52:10;99012.63;;;14.72;100.00
9899;BME280;4988;49.238;6.698;2022-10-16T06:54:36;99016.03;;;14.74;100.00
9899;BME280;4988;49.238;6.698;2022-10-16T06:57:01;99019.50;;;14.76;100.00
9899;BME280;4988;49.238;6.698;2022-10-16T06:59:26;99025.50;;;14.80;100.00
9899;BME280;4988;49.238;6.698;2022-10-16T07:01:52;99022.94;;;14.78;100.00
9899;BME280;4988;49.238;6.698;2022-10-16T07:04:17;99029.53;;;14.73;100.00
9899;BME280;4988;49.238;6.698;2022-10-16T07:06:42;99031.28;;;14.74;100.00
9899;BME280;4988;49.238;6.698;2022-10-16T07:09:10;99040.09;;;14.76;100.00
9899;BME280;4988;49.238;6.698;2022-10-16T07:11:37;99044.38;;;14.78;100.00
9899;BME280;4988;49.238;6.698;2022-10-16T07:14:03;99059.50;;;14.79;100.00
9899;BME280;4988;49.238;6.698;2022-10-16T07:16:30;99070.78;;;14.85;100.00
9899;BME280;4988;49.238;6.698;2022-10-16T07:19:00;99088.38;;;14.89;100.00
9899;BME280;4988;49.238;6.698;2022-10-16T07:21:31;99079.19;;;14.93;100.00
9899;BME280;4988;49.238;6.698;2022-10-16T07:24:00;99073.81;;;14.93;100.00
9899;BME280;4988;49.238;6.698;2022-10-16T07:26:27;99081.53;;;14.98;100.00
9899;BME280;4988;49.238;6.698;2022-10-16T07:28:53;99090.94;;;14.90;100.00
9899;BME280;4988;49.238;6.698;2022-10-16T07:31:19;99086.25;;;14.94;100.00
9899;BME280;4988;49.238;6.698;2022-10-16T07:33:46;99097.84;;;14.94;100.00
9899;BME280;4988;49.238;6.698;2022-10-16T07:36:14;99096.50;;;15.02;100.00
9899;BME280;4988;49.238;6.698;2022-10-16T07:38:39;99091.78;;;15.05;100.00
9899;BME280;4988;49.238;6.698;2022-10-16T07:41:06;99100.69;;;15.06;100.00
9899;BME280;4988;49.238;6.698;2022-10-16T07:43:33;99094.16;;;15.10;100.00
9899;BME280;4988;49.238;6.698;2022-10-16T07:45:59;99088.47;;;15.15;100.00
9899;BME280;4988;49.238;6.698;2022-10-16T07:48:28;99100.53;;;15.22;100.00
9899;BME280;4988;49.238;6.698;2022-10-16T07:50:57;99105.50;;;15.28;100.00
9899;BME280;4988;49.238;6.698;2022-10-16T07:53:24;99123.31;;;15.29;100.00
9899;BME280;4988;49.238;6.698;2022-10-16T07:55:49;99125.03;;;15.30;100.00
9899;BME280;4988;49.238;6.698;2022-10-16T07:58:15;99122.91;;;15.35;100.00
9899;BME280;4988;49.238;6.698;2022-10-16T08:00:40;99120.88;;;15.39;100.00
9899;BME280;4988;49.238;6.698;2022-10-16T08:03:05;99129.34;;;15.46;100.00
9899;BME280;4988;49.238;6.698;2022-10-16T08:05:32;99146.41;;;15.44;100.00
9899;BME280;4988;49.238;6.698;2022-10-16T08:07:57;99150.09;;;15.43;100.00
9899;BME280;4988;49.238;6.698;2022-10-16T08:10:25;99146.13;;;15.49;100.00
9899;BME280;4988;49.238;6.698;2022-10-16T08:12:54;99144.75;;;15.56;100.00
9899;BME280;4988;49.238;6.698;2022-10-16T08:15:20;99142.50;;;15.63;100.00
9899;BME280;4988;49.238;6.698;2022-10-16T08:17:59;99144.56;;;15.72;100.00
9899;BME280;4988;49.238;6.698;2022-10-16T08:20:27;99145.69;;;15.83;100.00
9899;BME280;4988;49.238;6.698;2022-10-16T08:22:54;99144.44;;;15.88;100.00
9899;BME280;4988;49.238;6.698;2022-10-16T08:25:21;99142.94;;;15.97;100.00
9899;BME280;4988;49.238;6.698;2022-10-16T08:27:47;99146.09;;;16.04;100.00
9899;BME280;4988;49.238;6.698;2022-10-16T08:30:13;99147.34;;;16.11;100.00
9899;BME280;4988;49.238;6.698;2022-10-16T08:32:38;99157.06;;;16.14;100.00
9899;BME280;4988;49.238;6.698;2022-10-16T08:35:04;99154.03;;;16.18;100.00
9899;BME280;4988;49.238;6.698;2022-10-16T08:37:31;99152.75;;;16.24;100.00
9899;BME280;4988;49.238;6.698;2022-10-16T08:39:57;99158.88;;;16.26;100.00
9899;BME280;4988;49.238;6.698;2022-10-16T08:50:42;99162.31;;;16.41;100.00
9899;BME280;4988;49.238;6.698;2022-10-16T08:53:15;99157.91;;;16.53;100.00
9899;BME280;4988;49.238;6.698;2022-10-16T08:55:43;99167.56;;;16.68;100.00
9899;BME280;4988;49.238;6.698;2022-10-16T08:58:12;99170.13;;;16.83;100.00
9899;BME280;4988;49.238;6.698;2022-10-16T09:00:38;99163.28;;;16.92;100.00
9899;BME280;4988;49.238;6.698;2022-10-16T09:03:17;99155.09;;;16.93;100.00
9899;BME280;4988;49.238;6.698;2022-10-16T09:11:42;99174.50;;;17.10;100.00
9899;BME280;4988;49.238;6.698;2022-10-16T09:14:23;99176.66;;;17.17;100.00
9899;BME280;4988;49.238;6.698;2022-10-16T09:20:29;99177.19;;;17.23;100.00
9899;BME280;4988;49.238;6.698;2022-10-16T09:23:22;99173.41;;;17.25;100.00
9899;BME280;4988;49.238;6.698;2022-10-16T09:25:50;99170.38;;;17.30;100.00
9899;BME280;4988;49.238;6.698;2022-10-16T09:28:18;99186.13;;;17.47;100.00
9899;BME280;4988;49.238;6.698;2022-10-16T09:30:44;99180.75;;;17.72;100.00
9899;BME280;4988;49.238;6.698;2022-10-16T09:33:12;99185.59;;;17.91;100.00
9899;BME280;4988;49.238;6.698;2022-10-16T09:35:40;99176.78;;;18.24;100.00
9899;BME280;4988;49.238;6.698;2022-10-16T09:38:07;99180.50;;;18.46;100.00
9899;BME280;4988;49.238;6.698;2022-10-16T09:40:35;99180.00;;;18.41;100.00
9899;BME280;4988;49.238;6.698;2022-10-16T09:45:42;99173.88;;;18.50;100.00
9899;BME280;4988;49.238;6.698;2022-10-16T09:48:12;99168.63;;;18.60;100.00
9899;BME280;4988;49.238;6.698;2022-10-16T09:50:38;99167.28;;;18.54;100.00
9899;BME280;4988;49.238;6.698;2022-10-16T09:53:14;99167.03;;;18.46;100.00
9899;BME280;4988;49.238;6.698;2022-10-16T09:55:49;99164.56;;;18.31;100.00
9899;BME280;4988;49.238;6.698;2022-10-16T09:58:15;99175.59;;;18.28;100.00
9899;BME280;4988;49.238;6.698;2022-10-16T10:00:42;99176.06;;;18.22;100.00
9899;BME280;4988;49.238;6.698;2022-10-16T10:03:31;99179.63;;;18.34;100.00
9899;BME280;4988;49.238;6.698;2022-10-16T10:06:14;99174.63;;;18.41;100.00
9899;BME280;4988;49.238;6.698;2022-10-16T10:09:05;99175.25;;;18.56;100.00
9899;BME280;4988;49.238;6.698;2022-10-16T10:11:42;99169.75;;;18.69;100.00
9899;BME280;4988;49.238;6.698;2022-10-16T10:16:47;99174.41;;;18.89;100.00
9899;BME280;4988;49.238;6.698;2022-10-16T10:19:23;99187.31;;;18.97;100.00
9899;BME280;4988;49.238;6.698;2022-10-16T10:21:52;99185.47;;;19.09;100.00
9899;BME280;4988;49.238;6.698;2022-10-16T10:24:19;99186.94;;;19.02;100.00
9899;BME280;4988;49.238;6.698;2022-10-16T10:26:49;99183.88;;;18.95;100.00
9899;BME280;4988;49.238;6.698;2022-10-16T10:29:26;99190.59;;;18.89;100.00
9899;BME280;4988;49.238;6.698;2022-10-16T10:34:54;99191.94;;;18.84;100.00
9899;BME280;4988;49.238;6.698;2022-10-16T10:37:55;99186.59;;;18.95;100.00
9899;BME280;4988;49.238;6.698;2022-10-16T10:45:42;99183.13;;;19.04;100.00
9899;BME280;4988;49.238;6.698;2022-10-16T10:50:56;99190.84;;;19.09;100.00
9899;BME280;4988;49.238;6.698;2022-10-16T10:56:40;99189.41;;;18.93;100.00
9899;BME280;4988;49.238;6.698;2022-10-16T11:02:41;99202.34;;;18.88;100.00
9899;BME280;4988;49.238;6.698;2022-10-16T11:05:20;99194.38;;;18.87;100.00
9899;BME280;4988;49.238;6.698;2022-10-16T11:08:00;99196.25;;;18.86;100.00
9899;BME280;4988;49.238;6.698;2022-10-16T11:10:32;99202.13;;;18.80;100.00
9899;BME280;4988;49.238;6.698;2022-10-16T11:13:16;99206.91;;;18.76;100.00
9899;BME280;4988;49.238;6.698;2022-10-16T11:15:45;99193.28;;;18.67;100.00
9899;BME280;4988;49.238;6.698;2022-10-16T11:18:22;99186.16;;;18.65;100.00
9899;BME280;4988;49.238;6.698;2022-10-16T11:20:56;99189.84;;;18.64;100.00
9899;BME280;4988;49.238;6.698;2022-10-16T11:23:51;99181.25;;;18.59;100.00
9899;BME280;4988;49.238;6.698;2022-10-16T11:26:24;99189.56;;;18.56;100.00
9899;BME280;4988;49.238;6.698;2022-10-16T11:28:53;99184.09;;;18.58;100.00
9899;BME280;4988;49.238;6.698;2022-10-16T11:31:37;99178.22;;;18.53;100.00
9899;BME280;4988;49.238;6.698;2022-10-16T11:36:48;99180.03;;;18.52;100.00
9899;BME280;4988;49.238;6.698;2022-10-16T11:39:21;99172.69;;;18.54;100.00
9899;BME280;4988;49.238;6.698;2022-10-16T11:49:33;99157.72;;;18.50;100.00
9899;BME280;4988;49.238;6.698;2022-10-16T11:54:45;99152.59;;;18.58;100.00
9899;BME280;4988;49.238;6.698;2022-10-16T11:57:21;99154.53;;;18.56;100.00
9899;BME280;4988;49.238;6.698;2022-10-16T12:02:54;99163.38;;;18.70;100.00
9899;BME280;4988;49.238;6.698;2022-10-16T12:08:08;99163.88;;;18.75;100.00
9899;BME280;4988;49.238;6.698;2022-10-16T12:10:36;99152.22;;;18.86;100.00
9899;BME280;4988;49.238;6.698;2022-10-16T12:13:04;99146.19;;;18.82;100.00
9899;BME280;4988;49.238;6.698;2022-10-16T12:15:34;99152.22;;;18.86;100.00
9899;BME280;4988;49.238;6.698;2022-10-16T12:18:02;99146.44;;;18.90;100.00
9899;BME280;4988;49.238;6.698;2022-10-16T12:20:32;99155.53;;;19.01;100.00
9899;BME280;4988;49.238;6.698;2022-10-16T12:23:16;99158.09;;;19.13;100.00
9899;BME280;4988;49.238;6.698;2022-10-16T12:25:54;99147.16;;;19.26;100.00
9899;BME280;4988;49.238;6.698;2022-10-16T12:28:25;99146.41;;;19.36;100.00
9899;BME280;4988;49.238;6.698;2022-10-16T12:31:02;99156.81;;;19.40;100.00
9899;BME280;4988;49.238;6.698;2022-10-16T12:33:37;99162.94;;;19.42;100.00
9899;BME280;4988;49.238;6.698;2022-10-16T12:36:15;99159.16;;;19.45;100.00
9899;BME280;4988;49.238;6.698;2022-10-16T12:38:52;99152.50;;;19.49;100.00
9899;BME280;4988;49.238;6.698;2022-10-16T12:41:32;99152.22;;;19.52;100.00
9899;BME280;4988;49.238;6.698;2022-10-16T12:44:00;99151.16;;;19.43;100.00
9899;BME280;4988;49.238;6.698;2022-10-16T12:51:40;99156.56;;;19.43;100.00
9899;BME280;4988;49.238;6.698;2022-10-16T12:54:15;99170.53;;;19.49;100.00
9899;BME280;4988;49.238;6.698;2022-10-16T12:56:44;99170.00;;;19.55;100.00
9899;BME280;4988;49.238;6.698;2022-10-16T13:05:01;99164.72;;;19.65;100.00
9899;BME280;4988;49.238;6.698;2022-10-16T13:07:44;99155.09;;;19.72;100.00
9899;BME280;4988;49.238;6.698;2022-10-16T13:10:30;99158.41;;;19.75;100.00
9899;BME280;4988;49.238;6.698;2022-10-16T13:16:08;99159.16;;;19.77;100.00
9899;BME280;4988;49.238;6.698;2022-10-16T13:18:58;99165.94;;;19.83;100.00
9899;BME280;4988;49.238;6.698;2022-10-16T13:27:34;99162.00;;;19.65;100.00
9899;BME280;4988;49.238;6.698;2022-10-16T13:30:19;99156.00;;;19.72;100.00
9899;BME280;4988;49.238;6.698;2022-10-16T13:32:51;99148.47;;;19.76;100.00
9899;BME280;4988;49.238;6.698;2022-10-16T13:35:22;99148.69;;;19.84;100.00
9899;BME280;4988;49.238;6.698;2022-10-16T13:37:48;99150.66;;;19.82;99.92
9899;BME280;4988;49.238;6.698;2022-10-16T13:40:21;99151.03;;;19.89;99.84
9899;BME280;4988;49.238;6.698;2022-10-16T13:43:03;99149.91;;;19.91;99.85
9899;BME280;4988;49.238;6.698;2022-10-16T13:45:28;99142.25;;;19.97;100.00
9899;BME280;4988;49.238;6.698;2022-10-16T13:48:05;99142.25;;;19.97;100.00
9899;BME280;4988;49.238;6.698;2022-10-16T13:50:31;99136.59;;;20.00;96.76
9899;BME280;4988;49.238;6.698;2022-10-16T13:53:14;99140.22;;;19.89;96.60
9899;BME280;4988;49.238;6.698;2022-10-16T13:55:40;99139.47;;;19.87;97.38
9899;BME280;4988;49.238;6.698;2022-10-16T13:58:13;99134.94;;;19.87;97.64
9899;BME280;4988;49.238;6.698;2022-10-16T14:00:52;99133.44;;;19.95;97.33
9899;BME280;4988;49.238;6.698;2022-10-16T14:03:19;99133.81;;;19.90;97.52
9899;BME280;4988;49.238;6.698;2022-10-16T14:06:00;99128.56;;;19.88;97.79
9899;BME280;4988;49.238;6.698;2022-10-16T14:08:28;99133.69;;;19.91;98.43
9899;BME280;4988;49.238;6.698;2022-10-16T14:10:59;99133.69;;;19.91;98.57
9899;BME280;4988;49.238;6.698;2022-10-16T14:13:43;99135.53;;;19.91;98.93
9899;BME280;4988;49.238;6.698;2022-10-16T14:16:11;99141.09;;;19.89;99.02
9899;BME280;4988;49.238;6.698;2022-10-16T14:18:45;99135.69;;;19.89;99.06
9899;BME280;4988;49.238;6.698;2022-10-16T14:21:15;99135.69;;;19.89;99.33
9899;BME280;4988;49.238;6.698;2022-10-16T14:23:42;99130.28;;;19.89;99.63
9899;BME280;4988;49.238;6.698;2022-10-16T14:28:37;99137.38;;;19.90;99.98
9899;BME280;4988;49.238;6.698;2022-10-16T14:31:31;99140.22;;;19.89;99.29
9899;BME280;4988;49.238;6.698;2022-10-16T14:33:58;99143.91;;;19.88;99.49
9899;BME280;4988;49.238;6.698;2022-10-16T14:36:25;99144.78;;;19.88;99.62
9899;BME280;4988;49.238;6.698;2022-10-16T14:39:03;99139.09;;;19.91;100.00
9899;BME280;4988;49.238;6.698;2022-10-16T14:41:31;99141.94;;;19.90;100.00
9899;BME280;4988;49.238;6.698;2022-10-16T14:44:03;99139.38;;;19.88;100.00
9899;BME280;4988;49.238;6.698;2022-10-16T14:46:37;99144.78;;;19.88;100.00
9899;BME280;4988;49.238;6.698;2022-10-16T14:51:41;99150.66;;;19.82;100.00
9899;BME280;4988;49.238;6.698;2022-10-16T14:54:23;99141.97;;;19.79;100.00
9899;BME280;4988;49.238;6.698;2022-10-16T14:56:56;99144.06;;;19.75;100.00